LDZD/ZAD METAR and TAF weather

Enter ICAO airport designator
Station Type Date Time Source
LDZD METAR 2020/11/25 22:30 UTC NOAA

LDZD 252230Z 00000KT 0300 R13/0600D FG NSC 01/01 Q1024


Station Type Date Time Source
LDZD Decoded METAR 2020/11/25 22:30 UTC NOAA

Zadar / Zemunik, Croatia (LDZD) 44-06N 015-21E
Nov 25, 2020 - 05:30 PM EST / 2020.11.25 2230 UTC
Wind: Calm:0
Visibility: less than 1 mile:0
Weather: fog
Temperature: 33 F (1 C)
Dew Point: 33 F (1 C)
Relative Humidity: 100%
Pressure (altimeter): 30.24 in. Hg (1024 hPa)
ob: LDZD 252230Z 00000KT 0300 R13/0600D FG NSC 01/01 Q1024
cycle: 22

Station Type Date Time Source
LDZD TAF 2020/11/25 18:29 UTC NOAA

TAF LDZD 251725Z 2518/2618 VRB02KT CAVOK TX14/2613Z TN01/2605Z PROB30
TEMPO 2521/2607 2000 BCFG
TEMPO 2611/2616 30007KT

Example: see airport list